AirBox status report


DeploymentNumber of DevicesDetailAvg. TemperatureAvg. HumidityAvg. PM2.5Version
1 Edimax AirBox (Taipei) [12.9% (20/155)] [HTML] [JSON] [Dataset A]26.73℃ 106.55% 4.3 μg/m3 2018-11-17T02:09:31Z
2 Edimax AirBox (New Taipei) [27.52% (82/298)] [HTML] [JSON] [Dataset B]25.85℃ 94.84% 5.51 μg/m3 2018-11-17T02:09:31Z
3 Edimax AirBox (Taoyuan) [35.74% (84/235)] [HTML] [JSON] [Dataset A]25.58℃ 90.96% 10.58 μg/m3 2018-11-17T02:09:31Z
4 Edimax AirBox (Taichung) [68.53% (159/232)] [HTML] [JSON] [Dataset B]27.72℃ 92.05% 32.36 μg/m3 2018-11-17T02:09:32Z
5 Edimax AirBox (Tainan) [50.47% (108/214)] [HTML] [JSON] [Dataset B]30.02℃ 93.44% 57.67 μg/m3 2018-11-17T02:09:32Z
6 Edimax AirBox (Kaohsiung) [62.81% (152/242)] [HTML] [JSON] [Dataset B]30.78℃ 93.84% 65.7 μg/m3 2018-11-17T02:09:32Z
7 Edimax AirBox (Korea) 100% (937/937) [HTML] [JSON] [Dataset Z]17.69℃ 54.23% 37.21 μg/m3 2018-11-17T02:09:35Z
8 Edimax AirBox (LASS) [10.81% (8/74)] [HTML] [JSON] [Dataset A]31.53℃ 79% 28.88 μg/m3 2018-11-17T02:09:36Z
9 Edimax AirBox (TaichungZero) [53.38% (79/148)] [HTML] [JSON] [Dataset A]28.63℃ 89.49% 32.28 μg/m3 2018-11-17T02:09:36Z
10 Edimax AirBox (TaoyuanFirst) [55.56% (15/27)] [HTML] [JSON] [Dataset A]25.08℃ 92.2% 11.33 μg/m3 2018-11-17T02:09:36Z
11 Edimax AirBox (other) 100% (899/899) [HTML] [JSON] [Dataset A]32℃ 69% 72 μg/m3 2018-11-17T02:09:36Z
12 LASS AirBox (Hsinchu) [44% (22/50)] [HTML] [JSON] [Dataset A]26.09℃ 91.5% 7.86 μg/m3 2018-11-17T02:09:32Z
13 LASS AirBox (Yunlin) [37.31% (72/193)] [HTML] [JSON] [Dataset A]29.47℃ 90.63% 46.99 μg/m3 2018-11-17T02:09:32Z
14 LASS AirBox (Chiayi) [43.14% (22/51)] [HTML] [JSON] [Dataset A]29.91℃ 88.18% 77.23 μg/m3 2018-11-17T02:09:33Z
15 LASS AirBox (Chiayi County) [41.11% (74/180)] [HTML] [JSON] [Dataset A]28.99℃ 88.03% 58.09 μg/m3 2018-11-17T02:09:33Z
16 LASS AirBox (Kinmen) [12.5% (3/24)] [HTML] [JSON] [Dataset A]23.37℃ 100% 26.67 μg/m3 2018-11-17T02:09:33Z
17 LASS AirBox (Hsinchu County) [42.96% (58/135)] [HTML] [JSON] [Dataset A]24.98℃ 77.28% 14.22 μg/m3 2018-11-17T02:09:34Z
18 LASS AirBox (Yilan) [24.3% (26/107)] [HTML] [JSON] [Dataset A]25.69℃ 84.42% 6.38 μg/m3 2018-11-17T02:09:34Z
19 LASS AirBox (Hualien) [7.94% (10/126)] [HTML] [JSON] [Dataset A]27.01℃ 79.1% 17 μg/m3 2018-11-17T02:09:33Z
20 LASS AirBox (Pingtung) [43.48% (100/230)] [HTML] [JSON] [Dataset A]30.87℃ 70.87% 53.59 μg/m3 2018-11-17T02:09:34Z
21 LASS AirBox (Penghu) [35.29% (18/51)] [HTML] [JSON] [Dataset A]27.35℃ 80% 12.5 μg/m3 2018-11-17T02:09:34Z
22 LASS AirBox (Keelung) [32.14% (18/56)] [HTML] [JSON] [Dataset A]24.93℃ 83.72% 5.06 μg/m3 2018-11-17T02:09:34Z
23 LASS AirBox (Taitung) [34.75% (41/118)] [HTML] [JSON] [Dataset A]27.88℃ 79.1% 15.27 μg/m3 2018-11-17T02:09:35Z
24 LASS AirBox (Miaoli) [84.77% (128/151)] [HTML] [JSON] [Dataset A]24.2℃ 80.88% 23.39 μg/m3 2018-11-17T02:09:35Z
25 LASS AirBox (Matsu) 12.5% (1/8) [HTML] [JSON] [Dataset A]18.75℃ 93% 5 μg/m3 2018-11-17T02:09:35Z
26 LASS (LASS FT) 100% (127/127) [HTML] [JSON] [Dataset C]22.9℃ 67.53% 35.67 μg/m3 2018-11-17T02:09:36Z
27 LASS (LASS4U) 100% (59/59) [HTML] [JSON] [Dataset D]25.18℃ 71.78% 22.92 μg/m3 2018-11-17T02:09:36Z
28 MAPS (WiFi) [3.45% (3/87)] [HTML] [JSON] [Dataset E]-40℃ 52.34% 28.33 μg/m3 2018-11-17T02:09:36Z
29 MAPS (RESCUE_TW) [21.88% (7/32)] [HTML] [JSON] [Dataset K]22.66℃ 56.59% 15.86 μg/m3 2018-11-17T02:09:36Z
30 MAPS (other) 100% (5/5) [HTML] [JSON] [Dataset E]-1℃ -1% 15 μg/m3 2018-11-17T02:09:36Z
31 ASLUNG 100% (43/43) [HTML] [JSON] [Dataset F]21.59℃ 71.12% 36.23 μg/m3 2018-11-17T02:09:36Z
32 *AirQ 100% (151/151) [HTML] [JSON] [Dataset J]0℃ 0% 31.71 μg/m3 2018-11-17T02:09:36Z
33 *AirU 100% (662/662) [HTML] [JSON] [Dataset L]0℃ 0% 31.97 μg/m3 2018-11-17T02:09:36Z
34 ITRI_PM25 100% (5/5) [HTML] [JSON] [Dataset M]0℃ 0% 2.6 μg/m3 2018-11-17T02:09:36Z
35 *Asus AirBox 100% (30/30) [HTML] [JSON] [Dataset G]26.53℃ 73.4% 49.5 μg/m3 2018-11-17T02:09:36Z
36 *gov Indie N/A (0/0) [HTML] [JSON] [Dataset H]0℃ 0% 0 μg/m3 2018-11-17T02:09:36Z
37 *ProbeCube 100% (3/3) [HTML] [JSON] [Dataset I]25.1℃ 75.67% 0 μg/m3 2018-11-17T02:09:36Z
38 Total 68.85% (4231/6145)

Resource:

Note: